createdAt,value
2018-04-12T00:02:24.120Z,8.23
2018-04-12T00:04:51.581Z,8.77
2018-04-12T00:07:19.072Z,9.00
2018-04-12T00:09:46.532Z,11.43
2018-04-12T00:12:14.769Z,9.90
2018-04-12T00:14:42.227Z,9.90
2018-04-12T00:17:09.730Z,15.83
2018-04-12T00:19:38.156Z,15.23
2018-04-12T00:22:05.704Z,19.63
2018-04-12T00:24:33.190Z,9.50
2018-04-12T00:27:00.667Z,12.77
2018-04-12T00:29:28.159Z,11.80
2018-04-12T00:31:55.660Z,10.10
2018-04-12T00:34:23.136Z,9.47
2018-04-12T00:36:50.598Z,9.90
2018-04-12T00:39:18.162Z,13.33
2018-04-12T00:41:46.424Z,10.63
2018-04-12T00:44:13.905Z,15.30
2018-04-12T00:46:42.154Z,13.20
2018-04-12T00:49:09.623Z,13.33
2018-04-12T00:51:37.868Z,14.37
2018-04-12T00:54:08.631Z,13.80
2018-04-12T00:56:36.858Z,16.37
2018-04-12T00:59:04.368Z,13.73
2018-04-12T01:01:32.604Z,13.97
2018-04-12T01:04:00.092Z,15.23
2018-04-12T01:06:27.571Z,14.13
2018-04-12T01:08:56.755Z,16.80
2018-04-12T01:11:24.224Z,16.60
2018-04-12T01:13:52.486Z,16.97
2018-04-12T01:16:19.967Z,19.20
2018-04-12T01:18:48.217Z,17.43
2018-04-12T01:21:16.447Z,22.30
2018-04-12T01:23:43.939Z,21.97
2018-04-12T01:26:11.428Z,20.13
2018-04-12T01:28:39.678Z,23.30
2018-04-12T01:31:07.172Z,22.80
2018-04-12T01:33:34.805Z,25.90
2018-04-12T01:36:03.064Z,27.40
2018-04-12T01:38:30.539Z,25.83
2018-04-12T01:40:58.791Z,35.73
2018-04-12T01:43:26.271Z,32.87
2018-04-12T01:45:54.515Z,34.20
2018-04-12T01:48:21.985Z,32.77
2018-04-12T01:50:49.465Z,33.57
2018-04-12T01:53:17.764Z,43.63
2018-04-12T01:55:45.201Z,46.33
2018-04-12T01:58:13.453Z,40.80
2018-04-12T02:00:40.947Z,36.30
2018-04-12T02:03:09.153Z,36.17
2018-04-12T02:05:36.631Z,43.73
2018-04-12T02:08:04.128Z,40.87
2018-04-12T02:10:32.600Z,40.80
2018-04-12T02:13:00.838Z,44.97
2018-04-12T02:15:28.325Z,46.50
2018-04-12T02:17:55.799Z,48.70
2018-04-12T02:20:24.040Z,43.27
2018-04-12T02:22:51.532Z,46.60
2018-04-12T02:25:19.747Z,50.30
2018-04-12T02:27:47.227Z,49.83
2018-04-12T02:30:14.710Z,47.23
2018-04-12T02:32:42.955Z,45.57
2018-04-12T02:35:10.434Z,50.87
2018-04-12T02:37:38.685Z,52.63
2018-04-12T02:40:06.187Z,58.57
2018-04-12T02:42:34.424Z,60.00
2018-04-12T02:45:01.996Z,64.20
2018-04-12T02:47:29.473Z,57.27
2018-04-12T02:49:57.717Z,62.03
2018-04-12T02:52:25.203Z,63.27
2018-04-12T02:54:53.449Z,66.30
2018-04-12T02:57:20.924Z,61.37
2018-04-12T02:59:49.243Z,60.17
2018-04-12T03:02:16.729Z,68.20
2018-04-12T03:04:44.213Z,71.27
2018-04-12T03:07:11.690Z,62.70
2018-04-12T03:09:39.944Z,64.93
2018-04-12T03:12:07.418Z,70.00
2018-04-12T03:14:35.803Z,70.30
2018-04-12T03:17:04.036Z,69.20
2018-04-12T03:19:31.517Z,64.70
2018-04-12T03:21:58.979Z,67.63
2018-04-12T03:24:27.244Z,62.40
2018-04-12T03:26:54.711Z,66.63
2018-04-12T03:29:22.949Z,70.10
2018-04-12T03:31:50.442Z,79.00
2018-04-12T03:34:18.689Z,67.00
2018-04-12T03:36:46.178Z,71.33
2018-04-12T03:39:14.420Z,73.93
2018-04-12T03:41:41.902Z,66.80
2018-04-12T03:44:10.155Z,72.87
2018-04-12T03:46:37.666Z,74.57
2018-04-12T03:49:05.183Z,77.33
2018-04-12T03:51:32.648Z,75.17
2018-04-12T03:54:01.621Z,69.50
2018-04-12T03:56:29.108Z,67.70
2018-04-12T03:58:57.368Z,67.57
2018-04-12T04:01:24.852Z,76.00
2018-04-12T04:03:53.096Z,72.57
2018-04-12T04:06:20.583Z,83.47
2018-04-12T04:08:48.811Z,76.13
2018-04-12T04:11:16.300Z,78.23
2018-04-12T04:13:44.548Z,78.63
2018-04-12T04:16:23.697Z,71.70
2018-04-12T04:19:03.192Z,73.27
2018-04-12T04:21:30.674Z,80.33
2018-04-12T04:23:58.147Z,75.10
2018-04-12T04:26:25.632Z,72.03
2018-04-12T04:28:53.866Z,77.37
2018-04-12T04:31:21.373Z,74.57
2018-04-12T04:33:49.726Z,71.50
2018-04-12T04:36:17.950Z,68.30
2018-04-12T04:38:45.423Z,70.10
2018-04-12T04:41:12.908Z,75.07
2018-04-12T04:43:40.493Z,72.27
2018-04-12T04:46:08.729Z,68.20
2018-04-12T04:48:36.226Z,71.07
2018-04-12T04:51:04.460Z,66.67
2018-04-12T04:53:31.940Z,70.43
2018-04-12T04:56:00.923Z,66.13
2018-04-12T04:58:28.421Z,76.93
2018-04-12T05:00:56.644Z,63.37
2018-04-12T05:03:24.136Z,61.97
2018-04-12T05:05:52.502Z,64.13
2018-04-12T05:08:21.481Z,62.47
2018-04-12T05:10:50.479Z,62.43
2018-04-12T05:13:17.975Z,67.80
2018-04-12T05:15:45.459Z,66.13
2018-04-12T05:18:12.952Z,75.43
2018-04-12T05:20:40.436Z,59.50
2018-04-12T05:23:08.688Z,61.63
2018-04-12T05:25:38.167Z,65.57
2018-04-12T05:28:05.849Z,68.93
2018-04-12T05:30:33.343Z,63.37
2018-04-12T05:33:01.579Z,57.57
2018-04-12T05:35:29.076Z,71.30
2018-04-12T05:37:56.573Z,55.90
2018-04-12T05:40:24.075Z,62.60
2018-04-12T05:42:52.307Z,60.57
2018-04-12T05:45:19.860Z,63.50
2018-04-12T05:47:47.382Z,57.47
2018-04-12T05:50:15.627Z,65.10
2018-04-12T05:52:43.087Z,56.27
2018-04-12T05:55:10.588Z,58.17
2018-04-12T05:57:38.056Z,68.20
2018-04-12T06:00:05.536Z,63.13
2018-04-12T06:02:32.999Z,58.10
2018-04-12T06:05:00.563Z,59.03
2018-04-12T06:07:28.070Z,59.57
2018-04-12T06:09:55.546Z,61.60
2018-04-12T06:12:23.023Z,66.27
2018-04-12T06:14:50.605Z,61.73
2018-04-12T06:17:18.087Z,64.13
2018-04-12T06:19:46.323Z,59.53
2018-04-12T06:22:13.805Z,59.90
2018-04-12T06:24:42.140Z,57.73
2018-04-12T06:27:09.642Z,61.63
2018-04-12T06:29:37.109Z,54.87
2018-04-12T06:32:05.463Z,66.83
2018-04-12T06:34:32.924Z,60.13
2018-04-12T06:37:00.408Z,56.67
2018-04-12T06:39:27.943Z,63.27
2018-04-12T06:41:56.192Z,57.50
2018-04-12T06:44:23.709Z,58.50
2018-04-12T06:46:51.204Z,65.03
2018-04-12T06:49:18.702Z,66.33
2018-04-12T06:51:46.946Z,61.20
2018-04-12T06:54:14.520Z,57.90
2018-04-12T06:56:42.019Z,65.20
2018-04-12T06:59:09.659Z,64.60
2018-04-12T07:01:37.906Z,54.83
2018-04-12T07:04:05.509Z,64.20
2018-04-12T07:06:32.988Z,66.03
2018-04-12T07:09:00.491Z,58.90
2018-04-12T07:11:27.964Z,61.60
2018-04-12T07:13:56.268Z,59.30
2018-04-12T07:16:23.777Z,59.13
2018-04-12T07:18:51.448Z,63.83
2018-04-12T07:21:18.948Z,59.97
2018-04-12T07:23:46.669Z,56.53
2018-04-12T07:26:14.900Z,54.83
2018-04-12T07:28:42.383Z,57.90
2018-04-12T07:31:11.357Z,59.77
2018-04-12T07:33:38.902Z,60.20
2018-04-12T07:36:06.408Z,63.70
2018-04-12T07:38:33.888Z,60.97
2018-04-12T07:41:01.445Z,57.40
2018-04-12T07:43:29.681Z,56.03
2018-04-12T07:45:57.168Z,60.90
2018-04-12T07:48:25.487Z,60.27
2018-04-12T07:50:52.976Z,60.20
2018-04-12T07:53:20.461Z,53.87
2018-04-12T07:55:48.707Z,60.50
2018-04-12T07:58:16.180Z,54.70
2018-04-12T08:00:44.460Z,59.90
2018-04-12T08:03:12.092Z,58.17
2018-04-12T08:05:39.691Z,60.77
2018-04-12T08:08:07.926Z,68.80
2018-04-12T08:10:35.436Z,62.67
2018-04-12T08:13:03.429Z,65.00
2018-04-12T08:15:31.496Z,60.60
2018-04-12T08:17:58.956Z,62.63
2018-04-12T08:20:26.433Z,60.80
2018-04-12T08:22:53.928Z,61.80
2018-04-12T08:25:22.184Z,57.73
2018-04-12T08:27:50.006Z,57.97
2018-04-12T08:30:17.479Z,61.37
2018-04-12T08:32:45.183Z,65.13
2018-04-12T08:35:12.648Z,65.13
2018-04-12T08:37:40.913Z,61.83
2018-04-12T08:40:09.139Z,59.03
2018-04-12T08:42:36.641Z,63.40
2018-04-12T08:45:04.116Z,61.17
2018-04-12T08:47:32.376Z,59.60
2018-04-12T08:49:59.848Z,61.00
2018-04-12T08:52:28.103Z,60.90
2018-04-12T08:54:55.575Z,63.97
2018-04-12T08:57:23.846Z,60.97
2018-04-12T08:59:51.357Z,66.07
2018-04-12T09:02:18.816Z,65.57
2018-04-12T09:04:47.102Z,63.60
2018-04-12T09:07:14.589Z,69.57
2018-04-12T09:09:42.090Z,74.20
2018-04-12T09:12:09.591Z,70.07
2018-04-12T09:14:37.100Z,75.83
2018-04-12T09:17:04.577Z,73.87
2018-04-12T09:19:32.092Z,71.40
2018-04-12T09:22:00.373Z,65.53
2018-04-12T09:24:29.716Z,87.17
2018-04-12T09:26:57.185Z,70.53
2018-04-12T09:29:24.686Z,67.93
2018-04-12T09:31:52.947Z,72.03
2018-04-12T09:34:20.412Z,75.47
2018-04-12T09:36:48.655Z,73.90
2018-04-12T09:39:16.162Z,68.23
2018-04-12T09:41:44.439Z,65.03
2018-04-12T09:44:13.498Z,67.50
2018-04-12T09:46:40.980Z,71.60
2018-04-12T09:49:09.246Z,64.27
2018-04-12T09:51:36.738Z,65.60
2018-04-12T09:54:04.212Z,67.13
2018-04-12T09:56:31.692Z,61.70
2018-04-12T09:58:59.163Z,64.90
2018-04-12T10:01:27.416Z,61.43
2018-04-12T10:03:55.824Z,60.73
2018-04-12T10:06:24.119Z,65.17
2018-04-12T10:08:58.133Z,64.30
2018-04-12T10:11:25.565Z,68.07
2018-04-12T10:13:53.041Z,64.43
2018-04-12T10:16:21.284Z,63.80
2018-04-12T10:18:49.528Z,63.00
2018-04-12T10:21:17.020Z,68.00
2018-04-12T10:23:44.590Z,68.10
2018-04-12T10:26:12.077Z,57.13
2018-04-12T10:28:39.571Z,59.33
2018-04-12T10:31:07.055Z,61.37
2018-04-12T10:33:34.561Z,63.00
2018-04-12T10:36:02.093Z,60.60
2018-04-12T10:38:30.504Z,60.13
2018-04-12T10:40:57.999Z,73.23
2018-04-12T10:43:25.477Z,62.70
2018-04-12T10:45:52.949Z,66.03
2018-04-12T10:48:21.196Z,60.23
2018-04-12T10:50:48.720Z,62.47
2018-04-12T10:53:16.401Z,64.63
2018-04-12T10:55:43.908Z,61.27
2018-04-12T10:58:12.151Z,60.40
2018-04-12T11:00:39.628Z,61.97
2018-04-12T11:03:07.942Z,58.13
2018-04-12T11:05:36.110Z,60.70
2018-04-12T11:08:03.605Z,60.57
2018-04-12T11:10:31.259Z,62.20
2018-04-12T11:12:58.780Z,60.33
2018-04-12T11:15:26.257Z,54.40
2018-04-12T11:17:53.756Z,57.50
2018-04-12T11:20:21.315Z,57.70
2018-04-12T11:22:48.806Z,54.83
2018-04-12T11:25:16.302Z,57.57
2018-04-12T11:27:43.783Z,63.80
2018-04-12T11:30:11.271Z,53.87
2018-04-12T11:32:39.530Z,64.87
2018-04-12T11:35:13.777Z,62.33
2018-04-12T11:37:41.244Z,63.87
2018-04-12T11:40:08.728Z,55.13
2018-04-12T11:42:36.199Z,56.83
2018-04-12T11:45:04.451Z,56.20
2018-04-12T11:47:31.920Z,57.40
2018-04-12T11:49:59.422Z,56.83
2018-04-12T11:52:27.660Z,54.07
2018-04-12T11:54:55.150Z,53.37
2018-04-12T11:57:23.388Z,54.43
2018-04-12T11:59:50.955Z,60.80
2018-04-12T12:02:19.263Z,56.90
2018-04-12T12:04:47.499Z,54.90
2018-04-12T12:07:14.989Z,57.00
2018-04-12T12:09:43.207Z,50.43
2018-04-12T12:12:10.700Z,50.87
2018-04-12T12:14:38.176Z,52.53
2018-04-12T12:17:06.408Z,53.93
2018-04-12T12:19:33.900Z,56.37
2018-04-12T12:22:01.560Z,60.87
2018-04-12T12:24:29.031Z,55.13
2018-04-12T12:26:57.281Z,52.20
2018-04-12T12:29:26.768Z,54.40
2018-04-12T12:31:54.308Z,51.10
2018-04-12T12:34:21.808Z,47.80
2018-04-12T12:36:49.281Z,45.37
2018-04-12T12:39:17.539Z,46.63
2018-04-12T12:41:45.156Z,49.07
2018-04-12T12:44:12.631Z,51.53
2018-04-12T12:46:40.132Z,55.77
2018-04-12T12:49:08.453Z,52.10
2018-04-12T12:51:35.939Z,47.27
2018-04-12T12:54:03.408Z,61.30
2018-04-12T12:56:30.885Z,55.33
2018-04-12T12:58:59.282Z,49.07
2018-04-12T13:01:26.797Z,53.60
2018-04-12T13:03:54.532Z,50.97
2018-04-12T13:06:22.077Z,50.73
2018-04-12T13:08:49.563Z,47.07
2018-04-12T13:11:17.049Z,52.70
2018-04-12T13:13:44.526Z,50.03
2018-04-12T13:16:12.772Z,52.77
2018-04-12T13:18:40.248Z,58.33
2018-04-12T13:21:08.620Z,51.87
2018-04-12T13:23:36.863Z,56.20
2018-04-12T13:26:05.796Z,49.37
2018-04-12T13:28:34.056Z,44.47
2018-04-12T13:31:02.328Z,54.43
2018-04-12T13:33:29.811Z,50.70
2018-04-12T13:35:58.067Z,52.70
2018-04-12T13:38:26.351Z,49.70
2018-04-12T13:40:54.596Z,47.63
2018-04-12T13:43:22.089Z,46.50
2018-04-12T13:45:52.326Z,55.17
2018-04-12T13:48:19.825Z,49.20
2018-04-12T13:50:47.515Z,54.80
2018-04-12T13:53:15.063Z,46.70
2018-04-12T13:55:42.891Z,50.77
2018-04-12T13:58:10.384Z,49.23
2018-04-12T14:00:38.642Z,45.10
2018-04-12T14:03:06.139Z,41.77
2018-04-12T14:05:34.375Z,49.50
2018-04-12T14:08:01.881Z,47.30
2018-04-12T14:10:30.163Z,44.43
2018-04-12T14:12:57.798Z,51.40
2018-04-12T14:15:25.389Z,46.80
2018-04-12T14:17:52.896Z,44.47
2018-04-12T14:20:20.468Z,46.70
2018-04-12T14:22:47.961Z,40.57
2018-04-12T14:25:15.574Z,43.03
2018-04-12T14:27:43.109Z,41.07
2018-04-12T14:30:10.595Z,41.30
2018-04-12T14:32:38.625Z,46.23
2018-04-12T14:35:06.539Z,41.90
2018-04-12T14:37:34.016Z,42.07
2018-04-12T14:40:02.529Z,45.40
2018-04-12T14:42:30.008Z,39.90
2018-04-12T14:44:57.528Z,38.37
2018-04-12T14:47:25.026Z,41.17
2018-04-12T14:49:52.586Z,40.67
2018-04-12T14:52:20.245Z,37.30
2018-04-12T14:54:47.815Z,45.00
2018-04-12T14:57:15.533Z,39.30
2018-04-12T14:59:43.027Z,39.93
2018-04-12T15:02:10.520Z,40.60
2018-04-12T15:04:38.772Z,36.37
2018-04-12T15:07:07.121Z,36.30
2018-04-12T15:09:34.589Z,38.23
2018-04-12T15:12:02.095Z,38.60
2018-04-12T15:14:30.454Z,36.00
2018-04-12T15:16:58.089Z,36.17
2018-04-12T15:19:25.606Z,30.10
2018-04-12T15:21:53.851Z,33.83
2018-04-12T15:24:22.092Z,34.57
2018-04-12T15:26:49.611Z,29.77
2018-04-12T15:29:17.868Z,30.43
2018-04-12T15:31:45.344Z,27.70
2018-04-12T15:34:12.833Z,26.63
2018-04-12T15:36:40.358Z,25.30
2018-04-12T15:39:08.650Z,19.93
2018-04-12T15:41:37.622Z,31.70
2018-04-12T15:44:05.875Z,22.37
2018-04-12T15:46:34.130Z,25.13
2018-04-12T15:49:01.607Z,25.03
2018-04-12T15:51:29.884Z,26.70
2018-04-12T15:53:57.413Z,22.73
2018-04-12T15:56:24.917Z,25.50
2018-04-12T15:58:53.170Z,24.23
2018-04-12T16:01:21.617Z,30.43
2018-04-12T16:03:50.153Z,28.00
2018-04-12T16:06:18.415Z,27.00
2018-04-12T16:08:45.892Z,26.93
2018-04-12T16:11:14.677Z,22.23
2018-04-12T16:13:42.367Z,24.63
2018-04-12T16:16:10.096Z,29.43
2018-04-12T16:18:37.654Z,24.93
2018-04-12T16:21:05.944Z,27.67
2018-04-12T16:23:33.392Z,23.57
2018-04-12T16:26:01.633Z,25.37
2018-04-12T16:28:29.130Z,24.27
2018-04-12T16:30:57.376Z,20.20
2018-04-12T16:33:24.877Z,29.70
2018-04-12T16:35:52.434Z,22.20
2018-04-12T16:38:20.706Z,21.20
2018-04-12T16:40:48.961Z,19.67
2018-04-12T16:43:16.481Z,21.53
2018-04-12T16:45:43.977Z,21.67
2018-04-12T16:48:11.496Z,23.20
2018-04-12T16:50:39.092Z,22.47
2018-04-12T16:53:07.452Z,20.40
2018-04-12T16:55:35.724Z,25.20
2018-04-12T16:58:03.199Z,17.43
2018-04-12T17:00:30.741Z,21.87
2018-04-12T17:02:58.210Z,19.07
2018-04-12T17:05:26.529Z,18.80
2018-04-12T17:07:54.024Z,22.80
2018-04-12T17:10:21.620Z,27.17
2018-04-12T17:12:49.929Z,19.50
2018-04-12T17:15:17.405Z,22.53
2018-04-12T17:17:44.923Z,19.27
2018-04-12T17:20:12.434Z,17.87
2018-04-12T17:22:39.996Z,23.13
2018-04-12T17:25:07.620Z,24.40
2018-04-12T17:27:35.164Z,19.07
2018-04-12T17:30:04.205Z,18.60
2018-04-12T17:32:31.705Z,18.70
2018-04-12T17:34:59.951Z,21.33
2018-04-12T17:37:27.419Z,22.50
2018-04-12T17:39:55.015Z,25.30
2018-04-12T17:42:22.675Z,18.53
2018-04-12T17:44:50.169Z,20.60
2018-04-12T17:47:17.656Z,24.33
2018-04-12T17:49:45.136Z,21.63
2018-04-12T17:52:13.613Z,22.83
2018-04-12T17:54:41.143Z,19.53
2018-04-12T17:57:08.933Z,23.83
2018-04-12T17:59:37.273Z,23.60
2018-04-12T18:02:04.806Z,31.00
2018-04-12T18:04:32.447Z,23.93
2018-04-12T18:06:59.994Z,26.90
2018-04-12T18:09:28.580Z,25.97
2018-04-12T18:11:56.578Z,22.03
2018-04-12T18:14:24.962Z,26.57
2018-04-12T18:16:52.984Z,24.83
2018-04-12T18:19:20.863Z,23.97
2018-04-12T18:21:48.743Z,26.57
2018-04-12T18:24:16.935Z,25.40
2018-04-12T18:26:45.005Z,28.63
2018-04-12T18:29:14.174Z,25.87
2018-04-12T18:31:42.084Z,24.37
2018-04-12T18:34:09.973Z,36.90
2018-04-12T18:36:37.533Z,28.30
2018-04-12T18:39:06.563Z,30.30
2018-04-12T18:41:35.008Z,25.20
2018-04-12T18:44:02.651Z,24.87
2018-04-12T18:46:31.364Z,22.33
2018-04-12T18:48:59.002Z,29.70
2018-04-12T18:51:27.874Z,26.63
2018-04-12T18:53:55.463Z,22.77
2018-04-12T18:56:23.855Z,28.13
2018-04-12T18:58:51.439Z,22.43
2018-04-12T19:01:19.141Z,24.67
2018-04-12T19:03:46.641Z,24.40
2018-04-12T19:06:14.541Z,22.33
2018-04-12T19:08:42.063Z,25.20
2018-04-12T19:11:09.539Z,23.30
2018-04-12T19:13:37.784Z,22.50
2018-04-12T19:16:06.135Z,25.70
2018-04-12T19:18:33.640Z,26.40
2018-04-12T19:21:02.110Z,22.90
2018-04-12T19:23:29.613Z,28.80
2018-04-12T19:25:57.321Z,22.73
2018-04-12T19:28:24.865Z,28.03
2018-04-12T19:30:52.383Z,30.00
2018-04-12T19:33:20.094Z,22.07
2018-04-12T19:35:47.628Z,25.73
2018-04-12T19:38:15.119Z,23.33
2018-04-12T19:40:43.409Z,28.00
2018-04-12T19:43:10.899Z,22.73
2018-04-12T19:45:38.364Z,21.90
2018-04-12T19:48:05.887Z,32.33
2018-04-12T19:50:34.228Z,29.80
2018-04-12T19:53:01.705Z,21.43
2018-04-12T19:55:30.700Z,27.53
2018-04-12T19:57:58.175Z,25.60
2018-04-12T20:00:26.535Z,25.13
2018-04-12T20:02:54.778Z,28.17
2018-04-12T20:05:22.267Z,27.93
2018-04-12T20:07:50.410Z,22.57
2018-04-12T20:10:17.865Z,25.43
2018-04-12T20:12:45.359Z,29.60
2018-04-12T20:15:12.892Z,20.90
2018-04-12T20:17:40.390Z,23.63
2018-04-12T20:20:08.620Z,22.87
2018-04-12T20:22:36.142Z,25.00
2018-04-12T20:25:04.356Z,23.90
2018-04-12T20:27:31.921Z,20.93
2018-04-12T20:29:59.508Z,26.40
2018-04-12T20:32:27.031Z,20.50
2018-04-12T20:34:54.535Z,22.93
2018-04-12T20:37:22.064Z,22.73
2018-04-12T20:39:49.545Z,23.57
2018-04-12T20:42:17.783Z,24.90
2018-04-12T20:44:46.177Z,27.40
2018-04-12T20:47:13.667Z,25.43
2018-04-12T20:49:41.904Z,28.33
2018-04-12T20:52:09.407Z,23.83
2018-04-12T20:54:36.891Z,20.17
2018-04-12T20:57:04.371Z,22.00
2018-04-12T20:59:32.663Z,21.80
2018-04-12T21:02:00.689Z,23.00
2018-04-12T21:04:28.174Z,22.40
2018-04-12T21:06:55.647Z,24.60
2018-04-12T21:09:23.112Z,22.20
2018-04-12T21:11:51.507Z,28.30
2018-04-12T21:14:19.108Z,24.07
2018-04-12T21:16:46.691Z,20.60
2018-04-12T21:19:14.335Z,24.57
2018-04-12T21:21:42.258Z,22.47
2018-04-12T21:24:10.503Z,21.57
2018-04-12T21:26:38.010Z,24.03
2018-04-12T21:29:05.483Z,27.37
2018-04-12T21:31:32.955Z,28.37
2018-04-12T21:34:00.445Z,25.10
2018-04-12T21:36:28.696Z,24.43
2018-04-12T21:38:56.181Z,22.17
2018-04-12T21:41:24.417Z,25.67
2018-04-12T21:43:51.931Z,24.83
2018-04-12T21:46:20.195Z,23.23
2018-04-12T21:48:48.431Z,28.30
2018-04-12T21:51:16.373Z,26.60
2018-04-12T21:53:43.868Z,24.93
2018-04-12T21:56:11.349Z,24.47
2018-04-12T21:58:39.603Z,23.40
2018-04-12T22:01:07.179Z,21.53
2018-04-12T22:03:34.684Z,23.43
2018-04-12T22:06:02.396Z,22.87
2018-04-12T22:08:30.049Z,23.70
2018-04-12T22:10:57.523Z,25.80
2018-04-12T22:13:25.779Z,25.37
2018-04-12T22:15:53.251Z,26.47
2018-04-12T22:18:21.495Z,27.40
2018-04-12T22:20:48.984Z,25.33
2018-04-12T22:23:17.305Z,27.90
2018-04-12T22:25:44.777Z,27.43
2018-04-12T22:28:12.426Z,27.90
2018-04-12T22:30:39.903Z,27.60
2018-04-12T22:33:08.915Z,27.00
2018-04-12T22:35:37.017Z,24.17
2018-04-12T22:38:05.259Z,25.60
2018-04-12T22:40:32.728Z,25.87
2018-04-12T22:43:00.196Z,26.37
2018-04-12T22:45:28.552Z,22.40
2018-04-12T22:47:56.027Z,24.60
2018-04-12T22:50:24.267Z,24.80
2018-04-12T22:52:51.747Z,22.70
2018-04-12T22:55:20.005Z,24.97
2018-04-12T22:57:47.484Z,31.03
2018-04-12T23:00:15.736Z,27.80
2018-04-12T23:02:43.224Z,28.67
2018-04-12T23:05:11.457Z,34.73
2018-04-12T23:07:39.023Z,36.70
2018-04-12T23:10:06.569Z,31.30
2018-04-12T23:12:34.235Z,31.23
2018-04-12T23:15:01.755Z,26.63
2018-04-12T23:17:29.343Z,28.20
2018-04-12T23:19:56.843Z,29.93
2018-04-12T23:22:25.823Z,29.43
2018-04-12T23:24:53.299Z,31.63
2018-04-12T23:27:21.532Z,28.67
2018-04-12T23:29:49.020Z,27.90
2018-04-12T23:32:16.475Z,28.73
2018-04-12T23:34:44.021Z,26.70
2018-04-12T23:37:11.498Z,34.07
2018-04-12T23:39:39.751Z,31.80
2018-04-12T23:42:07.249Z,43.97
2018-04-12T23:44:35.484Z,36.30
2018-04-12T23:47:02.951Z,33.97
2018-04-12T23:49:31.214Z,46.33
2018-04-12T23:51:58.684Z,50.87
2018-04-12T23:54:26.164Z,44.83
2018-04-12T23:56:54.404Z,34.63
2018-04-12T23:59:21.865Z,32.70
